Barcelona Express — VRLX6 — position and weather

sailwx.info

Track history (hours):
 
Tides and Currents Weather Stations Pressure Air Temp Water Temp Dewpoint Dewpoint Depression Visibility Wind Speed Wind Dir Waves Ship Positions

Barcelona Express

Last reported at 2017-Nov-20 00:30 UTC. Time now 2017-Nov-22 05:39 UTC.
Position N 43°34' E 010°18'.

Length 228 m; draft 8.2 m.

Type: Ship (hazmat cat D). MMSI: 477694300.

Date/timePositionNaut miles runAvg speedWind from/ knotsBaromVisibWave heightAir tempDewpointWater temp
2017-Nov-20 00:30N 43°34' E 010°18'0 0.0
2017-Nov-20 00:00N 43°34' E 010°18'0 0.0
2017-Nov-19 23:30N 43°34' E 010°18'0 0.0
2017-Nov-19 23:00N 43°34' E 010°18'0 0.0
2017-Nov-19 22:30N 43°35' E 010°18'0 0.0
2017-Nov-19 22:00N 43°35' E 010°18'2 3.4
2017-Nov-19 21:31N 43°33' E 010°17'3 6.1
2017-Nov-19 21:00N 43°31' E 010°15'2 4.2
2017-Nov-19 20:31N 43°29' E 010°12'0 0.4
2017-Nov-19 20:00N 43°29' E 010°12'1 2.7
2017-Nov-19 19:30N 43°30' E 010°14'1 1.6
2017-Nov-19 19:00N 43°29' E 010°13'612.6
2017-Nov-19 18:30N 43°23' E 010°11'917.5
2017-Nov-19 18:00N 43°15' E 010°07'816.1
2017-Nov-19 17:30N 43°07' E 010°04'5 9.3
2017-Nov-19 17:00N 43°03' E 010°02'3 6.8
2017-Nov-19 16:30N 42°59' E 010°00'5 6.8
2017-Nov-19 15:46N 42°55' E 009°58'2 6.6
2017-Nov-19 15:25N 42°52' E 009°58'23511.1
2017-Nov-18 18:11N 38°58' E 009°31'211.8
2017-Nov-18 18:00N 38°59' E 009°28'612.4
2017-Nov-18 17:30N 39°01' E 009°21'612.4
2017-Nov-18 17:00N 39°04' E 009°13'611.7
2017-Nov-18 16:30N 39°07' E 009°07'5 9.8
2017-Nov-18 16:00N 39°11' E 009°06'2 4.1
2017-Nov-18 15:29N 39°13' E 009°04'0 0.0
2017-Nov-18 14:59N 39°13' E 009°04'0 0.0
2017-Nov-18 14:29N 39°13' E 009°04'0 0.0
2017-Nov-18 13:59N 39°13' E 009°04'0 0.0
2017-Nov-18 13:29N 39°13' E 009°04'0 0.0
2017-Nov-18 12:59N 39°13' E 009°04'0 0.0
2017-Nov-18 12:29N 39°13' E 009°04'0 0.0
2017-Nov-18 11:59N 39°13' E 009°04'0 0.0
2017-Nov-18 11:29N 39°13' E 009°04'0 0.0
2017-Nov-18 10:59N 39°13' E 009°04'0 0.0
2017-Nov-18 10:29N 39°13' E 009°04'0 0.0
2017-Nov-18 09:59N 39°13' E 009°04'0 0.0
2017-Nov-18 09:23N 39°13' E 009°04'0 0.0
2017-Nov-18 08:59N 39°13' E 009°04'0 0.0
2017-Nov-18 08:29N 39°13' E 009°04'0 0.0
2017-Nov-18 07:59N 39°13' E 009°04'0 0.0
2017-Nov-18 07:29N 39°13' E 009°04'0 0.0
2017-Nov-18 06:59N 39°13' E 009°04'0 0.0
2017-Nov-18 06:29N 39°13' E 009°04'0 0.0
2017-Nov-18 05:59N 39°13' E 009°04'0 0.0
2017-Nov-18 05:29N 39°13' E 009°04'0 0.0
2017-Nov-18 04:59N 39°13' E 009°04'0 0.0
2017-Nov-18 04:29N 39°13' E 009°04'0 0.0
2017-Nov-18 03:59N 39°13' E 009°04'0 0.0
2017-Nov-18 03:29N 39°13' E 009°04'0 0.0
2017-Nov-18 02:59N 39°13' E 009°04'0 0.0
2017-Nov-18 02:29N 39°13' E 009°04'0 0.0
2017-Nov-18 01:59N 39°13' E 009°04'0 0.0
2017-Nov-18 01:29N 39°13' E 009°04'0 0.0
2017-Nov-18 00:59N 39°13' E 009°04'0 0.0
2017-Nov-18 00:29N 39°13' E 009°04'0 0.0
2017-Nov-17 23:59N 39°13' E 009°04'0 0.0
2017-Nov-17 23:29N 39°13' E 009°04'0 0.0
2017-Nov-17 22:59N 39°13' E 009°04'0 0.0
2017-Nov-17 22:29N 39°13' E 009°04'0 0.0
2017-Nov-17 21:59N 39°13' E 009°04'0 0.0
2017-Nov-17 21:30N 39°13' E 009°04'2 3.3
2017-Nov-17 20:59N 39°12' E 009°06'4 9.2
2017-Nov-17 20:30N 39°07' E 009°06'611.3
2017-Nov-17 19:59N 39°02' E 009°08'511.1
2017-Nov-17 19:30N 38°57' E 009°05'917.3
2017-Nov-17 19:00N 38°50' E 008°57'27517.8
2017-Nov-17 03:32N 39°02' E 003°04'317.9
2017-Nov-17 03:24N 39°02' E 003°01'718.3
2017-Nov-17 03:00N 39°03' E 002°52'917.8
2017-Nov-17 02:30N 39°05' E 002°41'917.9
2017-Nov-17 01:59N 39°07' E 002°29'918.2
2017-Nov-17 01:30N 39°09' E 002°18'149 4.9
2017-Nov-15 18:56N 37°45' W 000°19'614.5
2017-Nov-15 18:30N 37°40' W 000°23'714.7
2017-Nov-15 18:00N 37°34' W 000°29'714.7
2017-Nov-15 17:30N 37°29' W 000°35'714.5
2017-Nov-15 17:00N 37°25' W 000°43'714.7
2017-Nov-15 16:30N 37°20' W 000°50'815.1
2017-Nov-15 15:58N 37°15' W 000°58'715.2
2017-Nov-15 15:30N 37°10' W 001°04'20717.0
2017-Nov-15 03:20N 36°03' W 005°08'619.7
2017-Nov-15 03:01N 36°03' W 005°16'713.4
2017-Nov-15 02:30N 36°05' W 005°24'0 0.5
2017-Nov-15 01:51N 36°05' W 005°25'0 0.0
2017-Nov-15 01:30N 36°05' W 005°25'0 0.0
2017-Nov-15 00:57N 36°05' W 005°25'0 0.0
2017-Nov-15 00:27N 36°05' W 005°25'0 0.0
2017-Nov-14 23:57N 36°05' W 005°25'0 0.0
2017-Nov-14 23:27N 36°05' W 005°25'0 0.0
2017-Nov-14 22:57N 36°05' W 005°25'0 0.0
2017-Nov-14 21:21N 36°05' W 005°25'0 0.0
2017-Nov-14 20:51N 36°05' W 005°25'0 0.1
2017-Nov-14 20:27N 36°05' W 005°25'0 0.0
2017-Nov-14 19:06N 36°05' W 005°25'0 0.0
2017-Nov-14 18:57N 36°05' W 005°25'0 0.1
2017-Nov-14 18:18N 36°05' W 005°25'0 0.1
2017-Nov-14 18:00N 36°05' W 005°25'0 0.2
2017-Nov-14 17:27N 36°05' W 005°24'0 0.2
2017-Nov-14 17:00N 36°05' W 005°24'0 0.1
2017-Nov-14 16:30N 36°05' W 005°24'0 0.1
2017-Nov-14 16:00N 36°05' W 005°24'0 0.2
2017-Nov-14 15:23N 36°05' W 005°24'1 2.6
2017-Nov-14 15:00N 36°05' W 005°23'2 4.4
2017-Nov-14 14:30N 36°04' W 005°21'1 1.5
2017-Nov-14 14:00N 36°03' W 005°20'1 2.3
2017-Nov-14 13:30N 36°03' W 005°22'2 4.9
2017-Nov-14 13:00N 36°01' W 005°23'47111.1
2017-Nov-12 18:27N 37°58' W 014°55'1220.8
2017-Nov-12 17:51N 38°02' W 015°10'59220.4
2017-Nov-11 12:51N 40°34' W 027°30'1620.4
2017-Nov-11 12:04N 40°37' W 027°51'920.6
2017-Nov-11 11:39N 40°39' W 028°02'1920.7
2017-Nov-11 10:44N 40°42' W 028°26'820.2
2017-Nov-11 10:22N 40°43' W 028°36'820.4
2017-Nov-11 09:57N 40°45' W 028°47'920.4
2017-Nov-11 09:30N 40°46' W 028°59'1620.5
2017-Nov-11 08:45N 40°49' W 029°19'520.4
2017-Nov-11 08:30N 40°50' W 029°25'1020.2
2017-Nov-11 08:00N 40°52' W 029°39'1020.1
2017-Nov-11 07:30N 40°53' W 029°52'1320.4
2017-Nov-11 06:51N 40°55' W 030°09'720.3
2017-Nov-11 06:30N 40°56' W 030°18'1020.3
2017-Nov-11 06:00N 40°58' W 030°31'1020.4
2017-Nov-11 05:30N 40°60' W 030°45'1220.5
2017-Nov-11 04:55N 41°02' W 031°01'820.6
2017-Nov-11 04:30N 41°03' W 031°12'2120.4
2017-Nov-11 03:28N 41°06' W 031°40'2220.3
2017-Nov-11 02:23N 41°09' W 032°09'  
Track history (hours):
 
Tides and Currents Weather Stations Pressure Air Temp Water Temp Dewpoint Dewpoint Depression Visibility Wind Speed Wind Dir Waves Ship Positions

Barcelona Express

Last reported at 2017-Nov-20 00:30 UTC. Time now 2017-Nov-22 05:39 UTC.
Position N 43°34' E 010°18'.

Length 228 m; draft 8.2 m.

Type: Ship (hazmat cat D). MMSI: 477694300.

Date/timePositionNaut miles runAvg speedWind from/ knotsBaromVisibWave heightAir tempDewpointWater temp
2017-Nov-20 00:30N 43°34' E 010°18'0 0.0
2017-Nov-20 00:00N 43°34' E 010°18'0 0.0
2017-Nov-19 23:30N 43°34' E 010°18'0 0.0
2017-Nov-19 23:00N 43°34' E 010°18'0 0.0
2017-Nov-19 22:30N 43°35' E 010°18'0 0.0
2017-Nov-19 22:00N 43°35' E 010°18'2 3.4
2017-Nov-19 21:31N 43°33' E 010°17'3 6.1
2017-Nov-19 21:00N 43°31' E 010°15'2 4.2
2017-Nov-19 20:31N 43°29' E 010°12'0 0.4
2017-Nov-19 20:00N 43°29' E 010°12'1 2.7
2017-Nov-19 19:30N 43°30' E 010°14'1 1.6
2017-Nov-19 19:00N 43°29' E 010°13'612.6
2017-Nov-19 18:30N 43°23' E 010°11'917.5
2017-Nov-19 18:00N 43°15' E 010°07'816.1
2017-Nov-19 17:30N 43°07' E 010°04'5 9.3
2017-Nov-19 17:00N 43°03' E 010°02'3 6.8
2017-Nov-19 16:30N 42°59' E 010°00'5 6.8
2017-Nov-19 15:46N 42°55' E 009°58'2 6.6
2017-Nov-19 15:25N 42°52' E 009°58'23511.1
2017-Nov-18 18:11N 38°58' E 009°31'211.8
2017-Nov-18 18:00N 38°59' E 009°28'612.4
2017-Nov-18 17:30N 39°01' E 009°21'612.4
2017-Nov-18 17:00N 39°04' E 009°13'611.7
2017-Nov-18 16:30N 39°07' E 009°07'5 9.8
2017-Nov-18 16:00N 39°11' E 009°06'2 4.1
2017-Nov-18 15:29N 39°13' E 009°04'0 0.0
2017-Nov-18 14:59N 39°13' E 009°04'0 0.0
2017-Nov-18 14:29N 39°13' E 009°04'0 0.0
2017-Nov-18 13:59N 39°13' E 009°04'0 0.0
2017-Nov-18 13:29N 39°13' E 009°04'0 0.0
2017-Nov-18 12:59N 39°13' E 009°04'0 0.0
2017-Nov-18 12:29N 39°13' E 009°04'0 0.0
2017-Nov-18 11:59N 39°13' E 009°04'0 0.0
2017-Nov-18 11:29N 39°13' E 009°04'0 0.0
2017-Nov-18 10:59N 39°13' E 009°04'0 0.0
2017-Nov-18 10:29N 39°13' E 009°04'0 0.0
2017-Nov-18 09:59N 39°13' E 009°04'0 0.0
2017-Nov-18 09:23N 39°13' E 009°04'0 0.0
2017-Nov-18 08:59N 39°13' E 009°04'0 0.0
2017-Nov-18 08:29N 39°13' E 009°04'0 0.0
2017-Nov-18 07:59N 39°13' E 009°04'0 0.0
2017-Nov-18 07:29N 39°13' E 009°04'0 0.0
2017-Nov-18 06:59N 39°13' E 009°04'0 0.0
2017-Nov-18 06:29N 39°13' E 009°04'0 0.0
2017-Nov-18 05:59N 39°13' E 009°04'0 0.0
2017-Nov-18 05:29N 39°13' E 009°04'0 0.0
2017-Nov-18 04:59N 39°13' E 009°04'0 0.0
2017-Nov-18 04:29N 39°13' E 009°04'0 0.0
2017-Nov-18 03:59N 39°13' E 009°04'0 0.0
2017-Nov-18 03:29N 39°13' E 009°04'0 0.0
2017-Nov-18 02:59N 39°13' E 009°04'0 0.0
2017-Nov-18 02:29N 39°13' E 009°04'0 0.0
2017-Nov-18 01:59N 39°13' E 009°04'0 0.0
2017-Nov-18 01:29N 39°13' E 009°04'0 0.0
2017-Nov-18 00:59N 39°13' E 009°04'0 0.0
2017-Nov-18 00:29N 39°13' E 009°04'0 0.0
2017-Nov-17 23:59N 39°13' E 009°04'0 0.0
2017-Nov-17 23:29N 39°13' E 009°04'0 0.0
2017-Nov-17 22:59N 39°13' E 009°04'0 0.0
2017-Nov-17 22:29N 39°13' E 009°04'0 0.0
2017-Nov-17 21:59N 39°13' E 009°04'0 0.0
2017-Nov-17 21:30N 39°13' E 009°04'2 3.3
2017-Nov-17 20:59N 39°12' E 009°06'4 9.2
2017-Nov-17 20:30N 39°07' E 009°06'611.3
2017-Nov-17 19:59N 39°02' E 009°08'511.1
2017-Nov-17 19:30N 38°57' E 009°05'917.3
2017-Nov-17 19:00N 38°50' E 008°57'27517.8
2017-Nov-17 03:32N 39°02' E 003°04'317.9
2017-Nov-17 03:24N 39°02' E 003°01'718.3
2017-Nov-17 03:00N 39°03' E 002°52'917.8
2017-Nov-17 02:30N 39°05' E 002°41'917.9
2017-Nov-17 01:59N 39°07' E 002°29'918.2
2017-Nov-17 01:30N 39°09' E 002°18'149 4.9
2017-Nov-15 18:56N 37°45' W 000°19'614.5
2017-Nov-15 18:30N 37°40' W 000°23'714.7
2017-Nov-15 18:00N 37°34' W 000°29'714.7
2017-Nov-15 17:30N 37°29' W 000°35'714.5
2017-Nov-15 17:00N 37°25' W 000°43'714.7
2017-Nov-15 16:30N 37°20' W 000°50'815.1
2017-Nov-15 15:58N 37°15' W 000°58'715.2
2017-Nov-15 15:30N 37°10' W 001°04'20717.0
2017-Nov-15 03:20N 36°03' W 005°08'619.7
2017-Nov-15 03:01N 36°03' W 005°16'713.4
2017-Nov-15 02:30N 36°05' W 005°24'0 0.5
2017-Nov-15 01:51N 36°05' W 005°25'0 0.0
2017-Nov-15 01:30N 36°05' W 005°25'0 0.0
2017-Nov-15 00:57N 36°05' W 005°25'0 0.0
2017-Nov-15 00:27N 36°05' W 005°25'0 0.0
2017-Nov-14 23:57N 36°05' W 005°25'0 0.0
2017-Nov-14 23:27N 36°05' W 005°25'0 0.0
2017-Nov-14 22:57N 36°05' W 005°25'0 0.0
2017-Nov-14 21:21N 36°05' W 005°25'0 0.0
2017-Nov-14 20:51N 36°05' W 005°25'0 0.1
2017-Nov-14 20:27N 36°05' W 005°25'0 0.0
2017-Nov-14 19:06N 36°05' W 005°25'0 0.0
2017-Nov-14 18:57N 36°05' W 005°25'0 0.1
2017-Nov-14 18:18N 36°05' W 005°25'0 0.1
2017-Nov-14 18:00N 36°05' W 005°25'0 0.2
2017-Nov-14 17:27N 36°05' W 005°24'0 0.2
2017-Nov-14 17:00N 36°05' W 005°24'0 0.1
2017-Nov-14 16:30N 36°05' W 005°24'0 0.1
2017-Nov-14 16:00N 36°05' W 005°24'0 0.2
2017-Nov-14 15:23N 36°05' W 005°24'1 2.6
2017-Nov-14 15:00N 36°05' W 005°23'2 4.4
2017-Nov-14 14:30N 36°04' W 005°21'1 1.5
2017-Nov-14 14:00N 36°03' W 005°20'1 2.3
2017-Nov-14 13:30N 36°03' W 005°22'2 4.9
2017-Nov-14 13:00N 36°01' W 005°23'47111.1
2017-Nov-12 18:27N 37°58' W 014°55'1220.8
2017-Nov-12 17:51N 38°02' W 015°10'59220.4
2017-Nov-11 12:51N 40°34' W 027°30'1620.4
2017-Nov-11 12:04N 40°37' W 027°51'920.6
2017-Nov-11 11:39N 40°39' W 028°02'1920.7
2017-Nov-11 10:44N 40°42' W 028°26'820.2
2017-Nov-11 10:22N 40°43' W 028°36'820.4
2017-Nov-11 09:57N 40°45' W 028°47'920.4
2017-Nov-11 09:30N 40°46' W 028°59'1620.5
2017-Nov-11 08:45N 40°49' W 029°19'520.4
2017-Nov-11 08:30N 40°50' W 029°25'1020.2
2017-Nov-11 08:00N 40°52' W 029°39'1020.1
2017-Nov-11 07:30N 40°53' W 029°52'1320.4
2017-Nov-11 06:51N 40°55' W 030°09'720.3
2017-Nov-11 06:30N 40°56' W 030°18'1020.3
2017-Nov-11 06:00N 40°58' W 030°31'1020.4
2017-Nov-11 05:30N 40°60' W 030°45'1220.5
2017-Nov-11 04:55N 41°02' W 031°01'820.6
2017-Nov-11 04:30N 41°03' W 031°12'2120.4
2017-Nov-11 03:28N 41°06' W 031°40'2220.3
2017-Nov-11 02:23N 41°09' W 032°09'  

Dump ship's entire track history